Hauptseite
METAR-TAF:

METAR-TAF

Flughäfen :

Aigen im Ennstal, Österreich

Breite: 47-32N, Länge: 014-08E, Höhe: 638 m

METAR: fehlend

Zeit: 01:31 (23:31 UTC)

Prognose

Neuester Wetterbericht von vor 36 Stunden und 16 Minuten, um 11:15 UTC
Gültige Prognose vom 20 um 12 UTC bis 20 um 21 UTC
Wind 3 kt aus unterschiedlichen Richtungen
Sichtweite 10 km oder mehr
Leicht bewölkt in der Höhe von 6000 ft
Zeitweise
vom 20 um 12 UTC bis 20 um 18 UTC
Wind 7 kt aus Ost/Nordost
Aufgelockert bewölkt in der Höhe von 6000 ft
Leicht bewölkt in der Höhe von 6000 ft, Towering cumulus.
Wahrscheinlichkeit 30% :
Zeitweise
vom 20 um 13 UTC bis 20 um 18 UTC
Durchbrochene Bewölkung in der Höhe von 6000 ft
Leicht bewölkt in der Höhe von 6000 ft, Kumulonimbus.
Regenschauer

TAF: LOXA 201115Z 2012/2021 VRB03KT 9999 FEW060 TEMPO 2012/2018 06007KT SCT060 FEW060TCU PROB30 TEMPO 2013/2018 SHRA BKN060 FEW060CB

Wetterbeobachtungen und Prognosen von mehr als 4000 Flughäfen (METAR und TAF Bericht).

Die verfügbaren Stationen werden durch gelbe und rote Markierungen auf der Karte dargestellt.

Führen Sie die Maus auf sie, um den Namen der Station zu sehen.

Darauf klicken, um die Beobachtung von Wetterbeobachtungen und Prognosen zu sehen.

Um die Karte zu ändern : klicken Sie auf den grünen Tasten mit einem schwarzen Kreuz Zum Vergrößern, auf den grünen Button mit einem Gedankenstrich zu verkleinern, oder auf die grünen Pfeile für benachbarte Karten.


METAR-TAF: